Time;durP1;ratioP1;P1;durP2;ratioP2;P2;SDS_P1;SDS_P2;PMS_P1;PMS_P2;Temp;Humidity;BMP_temperature;BMP_pressure;BME280_temperature;BME280_humidity;BME280_pressure;Samples;Min_cycle;Max_cycle;Signal;HPM_P1;HPM_P2
2022/05/19 00:02:05;;;;;;;6.15;2.45;;;13.60;99.90;;;;;;5057244;28;20024;-71
2022/05/19 00:04:31;;;;;;;3.58;2.10;;;13.60;99.90;;;;;;5056507;28;20029;-71
2022/05/19 00:06:57;;;;;;;5.53;2.90;;;13.50;99.90;;;;;;5074855;28;20039;-71
2022/05/19 00:09:23;;;;;;;4.25;2.40;;;13.30;99.90;;;;;;5074704;28;20028;-71
2022/05/19 00:11:49;;;;;;;5.55;2.35;;;13.30;99.90;;;;;;5074700;28;20055;-71
2022/05/19 00:14:16;;;;;;;3.97;2.42;;;13.20;99.90;;;;;;5074320;28;20035;-71
2022/05/19 00:16:42;;;;;;;4.07;2.60;;;13.10;99.90;;;;;;5074301;28;20046;-71
2022/05/19 00:19:08;;;;;;;5.35;2.35;;;13.10;99.90;;;;;;5074497;28;20024;-71
2022/05/19 00:21:34;;;;;;;5.25;2.63;;;13.10;99.90;;;;;;5074537;28;20095;-71
2022/05/19 00:24:00;;;;;;;3.20;2.15;;;13.00;99.90;;;;;;5056479;28;20017;-72
2022/05/19 00:26:26;;;;;;;3.33;2.20;;;12.90;99.90;;;;;;5074172;28;20143;-71
2022/05/19 00:28:52;;;;;;;3.10;2.30;;;13.00;99.90;;;;;;5074441;28;20056;-71
2022/05/19 00:31:17;;;;;;;4.32;2.53;;;13.00;99.90;;;;;;5073920;28;20025;-71
2022/05/19 00:33:43;;;;;;;4.43;2.33;;;13.00;99.90;;;;;;5073945;28;20020;-71
2022/05/19 00:36:14;;;;;;;4.07;2.70;;;13.10;99.90;;;;;;5073976;28;20020;-71
2022/05/19 00:38:40;;;;;;;4.15;2.40;;;13.10;99.90;;;;;;5074457;28;20021;-71
2022/05/19 00:41:06;;;;;;;5.25;2.28;;;13.00;99.90;;;;;;5074177;28;20027;-72
2022/05/19 00:43:35;;;;;;;5.18;3.00;;;13.00;99.90;;;;;;5074331;28;20384;-72
2022/05/19 00:46:13;;;;;;;3.47;2.20;;;13.00;99.90;;;;;;5073885;28;20031;-72
2022/05/19 00:49:00;;;;;;;3.90;2.42;;;13.00;99.90;;;;;;5073768;28;20054;-72
2022/05/19 00:51:40;;;;;;;7.00;2.35;;;13.00;99.90;;;;;;5073782;28;20082;-72
2022/05/19 00:54:08;;;;;;;;;;;13.00;99.90;;;;;;5073409;28;20025;-72
2022/05/19 00:56:36;;;;;;;;;;;13.00;99.90;;;;;;5072782;28;19904;-72
2022/05/19 00:59:06;;;;;;;4.25;2.60;;;13.00;99.90;;;;;;5073587;28;20049;-72
2022/05/19 01:01:35;;;;;;;4.25;2.88;;;13.00;99.90;;;;;;5073843;28;20377;-72
2022/05/19 01:04:14;;;;;;;3.00;2.20;;;12.90;99.90;;;;;;5065547;28;20029;-72
2022/05/19 01:06:43;;;;;;;4.70;2.17;;;12.80;99.90;;;;;;5053695;28;20036;-72
2022/05/19 01:09:12;;;;;;;2.97;2.17;;;12.80;99.90;;;;;;5053643;28;20029;-72
2022/05/19 01:11:38;;;;;;;5.00;2.65;;;12.80;99.90;;;;;;5053206;28;20025;-72
2022/05/19 01:14:06;;;;;;;3.90;2.60;;;12.70;99.90;;;;;;5053710;28;20054;-72
2022/05/19 01:16:31;;;;;;;;;;;12.70;99.90;;;;;;5053047;28;20025;-72
2022/05/19 01:18:57;;;;;;;;;;;12.60;99.90;;;;;;5035461;28;19915;-72
2022/05/19 01:21:25;;;;;;;;;;;12.60;99.90;;;;;;5051915;28;19912;-72
2022/05/19 01:23:59;;;;;;;;;;;12.50;99.90;;;;;;5052566;28;19912;-72
2022/05/19 01:26:47;;;;;;;5.32;2.63;;;12.50;99.90;;;;;;5049623;28;20191;-72
2022/05/19 01:29:14;;;;;;;5.32;2.70;;;12.40;99.90;;;;;;5060105;28;20025;-71
2022/05/19 01:32:21;;;;;;;4.20;2.80;;;12.40;99.90;;;;;;5053478;28;20025;-72
2022/05/19 01:34:47;;;;;;;;;;;12.20;99.90;;;;;;5053767;28;20052;-72
2022/05/19 01:37:12;;;;;;;;;;;12.10;99.90;;;;;;5072576;28;20107;-71
2022/05/19 01:39:38;;;;;;;;;;;11.90;99.90;;;;;;5073502;28;19950;-72
2022/05/19 01:42:18;;;;;;;;;;;11.80;99.90;;;;;;5074495;28;19913;-72
2022/05/19 01:44:52;;;;;;;;;;;11.60;99.90;;;;;;5077728;28;19904;-72
2022/05/19 01:47:33;;;;;;;;;;;11.60;99.90;;;;;;5077636;28;19905;-72
2022/05/19 01:49:59;;;;;;;;;;;11.70;99.90;;;;;;5077823;28;19995;-72
2022/05/19 01:52:28;;;;;;;;;;;11.80;99.90;;;;;;5077831;28;20005;-72
2022/05/19 01:55:03;;;;;;;;;;;11.80;99.90;;;;;;5093052;28;19985;-72
2022/05/19 01:57:34;;;;;;;;;;;11.90;99.90;;;;;;5077437;28;20355;-72
2022/05/19 02:00:11;;;;;;;;;;;11.90;99.90;;;;;;5059415;28;19908;-72
2022/05/19 02:02:45;;;;;;;;;;;11.90;99.90;;;;;;5077367;28;19905;-72
2022/05/19 02:05:13;;;;;;;;;;;12.00;99.90;;;;;;5077129;28;20405;-72
2022/05/19 02:07:41;;;;;;;;;;;11.90;99.90;;;;;;5077840;28;20272;-72
2022/05/19 02:10:09;;;;;;;;;;;11.90;99.90;;;;;;5077217;28;19912;-72
2022/05/19 02:12:37;;;;;;;;;;;11.90;99.90;;;;;;5076918;28;19956;-72
2022/05/19 02:15:05;;;;;;;;;;;11.90;99.90;;;;;;5077069;28;19904;-72
2022/05/19 02:17:32;;;;;;;;;;;11.80;99.90;;;;;;5076970;28;20300;-71
2022/05/19 02:20:00;;;;;;;;;;;11.80;99.90;;;;;;5092520;28;20003;-71
2022/05/19 02:22:38;;;;;;;;;;;11.70;99.90;;;;;;5077205;28;20356;-71
2022/05/19 02:25:07;;;;;;;;;;;11.60;99.90;;;;;;5077143;28;19911;-71
2022/05/19 02:27:34;;;;;;;;;;;11.60;99.90;;;;;;5076867;28;19911;-71
2022/05/19 02:30:01;;;;;;;;;;;11.50;99.90;;;;;;5077390;28;19905;-71
2022/05/19 02:32:27;;;;;;;;;;;11.50;99.90;;;;;;5076769;28;20380;-71
2022/05/19 02:34:53;;;;;;;;;;;11.50;99.90;;;;;;5092339;28;19904;-72
2022/05/19 02:37:18;;;;;;;;;;;11.50;99.90;;;;;;5076986;28;19951;-72
2022/05/19 02:39:44;;;;;;;;;;;11.50;99.90;;;;;;5076571;28;19909;-72
2022/05/19 02:42:09;;;;;;;;;;;11.50;99.90;;;;;;5076891;28;19904;-72
2022/05/19 02:44:35;;;;;;;;;;;11.50;99.90;;;;;;5076560;28;19944;-71
2022/05/19 02:47:01;;;;;;;;;;;11.50;99.90;;;;;;5076540;28;20265;-72
2022/05/19 02:49:26;;;;;;;;;;;11.50;99.90;;;;;;5076731;28;19930;-72
2022/05/19 02:51:52;;;;;;;;;;;11.50;99.90;;;;;;5076796;28;19905;-72
2022/05/19 02:54:21;;;;;;;;;;;11.40;99.90;;;;;;5074926;28;19905;-72
2022/05/19 02:56:47;;;;;;;;;;;11.40;99.90;;;;;;5076374;28;19911;-72
2022/05/19 02:59:12;;;;;;;;;;;11.40;99.90;;;;;;5076507;28;19908;-72
2022/05/19 03:01:38;;;;;;;;;;;11.40;99.90;;;;;;5058328;28;19911;-72
2022/05/19 03:04:03;;;;;;;;;;;11.40;99.90;;;;;;5076141;28;19905;-72
2022/05/19 03:06:29;;;;;;;;;;;11.30;99.90;;;;;;5058055;28;19973;-72
2022/05/19 03:08:54;;;;;;;;;;;11.30;99.90;;;;;;5077599;28;19904;-72
2022/05/19 03:11:20;;;;;;;;;;;11.20;99.90;;;;;;5076377;28;19905;-72
2022/05/19 03:13:46;;;;;;;;;;;11.20;99.90;;;;;;5075994;28;20360;-72
2022/05/19 03:16:11;;;;;;;;;;;11.20;99.90;;;;;;5058151;28;20010;-72
2022/05/19 03:18:37;;;;;;;;;;;11.20;99.90;;;;;;5075929;28;19912;-72
2022/05/19 03:21:02;;;;;;;;;;;11.20;99.90;;;;;;5075799;28;19995;-71
2022/05/19 03:23:28;;;;;;;;;;;11.20;99.90;;;;;;5075755;28;20431;-72
2022/05/19 03:25:54;;;;;;;;;;;11.10;99.90;;;;;;5075827;28;19904;-72
2022/05/19 03:28:20;;;;;;;;;;;11.10;99.90;;;;;;5076068;28;19905;-72
2022/05/19 03:30:45;;;;;;;;;;;11.20;99.90;;;;;;5076308;28;19991;-71
2022/05/19 03:33:11;;;;;;;;;;;11.10;99.90;;;;;;5075607;28;19908;-71
2022/05/19 03:35:37;;;;;;;;;;;11.20;99.90;;;;;;5075914;28;19965;-72
2022/05/19 03:38:02;;;;;;;;;;;11.10;99.90;;;;;;5075879;28;19936;-72
2022/05/19 03:40:28;;;;;;;;;;;11.10;99.90;;;;;;5075448;28;20386;-72
2022/05/19 03:42:53;;;;;;;;;;;11.10;99.90;;;;;;5075768;28;20422;-72
2022/05/19 03:45:19;;;;;;;;;;;11.10;99.90;;;;;;5075506;28;20362;-72
2022/05/19 03:47:44;;;;;;;;;;;11.10;99.90;;;;;;5075409;28;19995;-71
2022/05/19 03:50:10;;;;;;;;;;;11.10;99.90;;;;;;5075581;28;19905;-72
2022/05/19 03:52:36;;;;;;;;;;;11.10;99.90;;;;;;5090957;28;19930;-71
2022/05/19 03:55:02;;;;;;;;;;;11.10;99.90;;;;;;5075218;28;20376;-71
2022/05/19 03:57:27;;;;;;;;;;;11.10;99.90;;;;;;5090791;28;19904;-72
2022/05/19 03:59:53;;;;;;;;;;;11.10;99.90;;;;;;5075065;28;19915;-72
2022/05/19 04:02:19;;;;;;;;;;;11.10;99.90;;;;;;5090589;28;20279;-72
2022/05/19 04:04:44;;;;;;;;;;;11.10;99.90;;;;;;5074407;28;19982;-72
2022/05/19 04:07:10;;;;;;;;;;;11.10;99.90;;;;;;5074048;28;19946;-72
2022/05/19 04:09:35;;;;;;;;;;;11.10;99.90;;;;;;5074069;28;19939;-72
2022/05/19 04:12:01;;;;;;;;;;;11.00;99.90;;;;;;5074331;28;20431;-72
2022/05/19 04:14:27;;;;;;;;;;;11.00;99.90;;;;;;5073472;28;20000;-72
2022/05/19 04:16:53;;;;;;;;;;;11.00;99.90;;;;;;5074041;28;19904;-72
2022/05/19 04:19:19;;;;;;;;;;;11.00;99.90;;;;;;5054679;28;19909;-72
2022/05/19 04:21:45;;;;;;;;;;;11.00;99.90;;;;;;5074156;28;19912;-72
2022/05/19 04:24:11;;;;;;;;;;;11.00;99.90;;;;;;5073988;28;19905;-72
2022/05/19 04:26:37;;;;;;;;;;;11.00;99.90;;;;;;5074041;28;19911;-72
2022/05/19 04:29:02;;;;;;;;;;;11.00;99.90;;;;;;5068158;28;19948;-72
2022/05/19 04:31:28;;;;;;;;;;;11.00;99.90;;;;;;5052544;28;19905;-72
2022/05/19 04:33:53;;;;;;;;;;;11.00;99.90;;;;;;5052474;28;19909;-71
2022/05/19 04:36:19;;;;;;;;;;;11.00;99.90;;;;;;5052470;28;19930;-71
2022/05/19 04:38:44;;;;;;;;;;;11.00;99.90;;;;;;5052393;28;19930;-72
2022/05/19 04:41:10;;;;;;;;;;;11.10;99.90;;;;;;5036149;28;20321;-72
2022/05/19 04:43:36;;;;;;;;;;;11.10;99.90;;;;;;5054314;28;19905;-73
2022/05/19 04:46:02;;;;;;;;;;;11.10;99.90;;;;;;5054571;28;20000;-73
2022/05/19 04:48:27;;;;;;;;;;;11.10;99.90;;;;;;5054258;28;19944;-73
2022/05/19 04:50:54;;;;;;;;;;;11.10;99.90;;;;;;5054231;28;20357;-72
2022/05/19 04:53:20;;;;;;;;;;;11.10;99.90;;;;;;5054110;28;19909;-73
2022/05/19 04:55:45;;;;;;;;;;;11.10;99.90;;;;;;5054161;28;19912;-73
2022/05/19 04:58:11;;;;;;;;;;;11.10;99.90;;;;;;5036273;28;19905;-73
2022/05/19 05:00:37;;;;;;;;;;;11.10;99.90;;;;;;5054541;28;19916;-73
2022/05/19 05:03:03;;;;;;;;;;;11.10;99.90;;;;;;5054297;28;19948;-72
2022/05/19 05:05:29;;;;;;;;;;;11.10;99.90;;;;;;5053790;28;19919;-73
2022/05/19 05:07:54;;;;;;;;;;;11.20;99.90;;;;;;5036141;28;19999;-73
2022/05/19 05:10:20;;;;;;;;;;;11.20;99.90;;;;;;5053943;28;19904;-73
2022/05/19 05:12:45;;;;;;;;;;;11.20;99.90;;;;;;5053873;28;19912;-73
2022/05/19 05:15:11;;;;;;;;;;;11.30;99.90;;;;;;5069169;28;19904;-73
2022/05/19 05:17:37;;;;;;;;;;;11.30;99.90;;;;;;5053014;28;19908;-73
2022/05/19 05:20:04;;;;;;;;;;;11.30;99.90;;;;;;5054009;28;19935;-73
2022/05/19 05:22:34;;;;;;;;;;;11.40;99.90;;;;;;5035863;28;20341;-73
2022/05/19 05:25:00;;;;;;;;;;;11.40;99.90;;;;;;5053683;28;19904;-72
2022/05/19 05:27:26;;;;;;;;;;;11.50;99.90;;;;;;5053977;28;19911;-73
2022/05/19 05:29:52;;;;;;;;;;;11.50;99.90;;;;;;5053776;28;20360;-73
2022/05/19 05:32:17;;;;;;;;;;;11.60;99.90;;;;;;5053685;28;19909;-73
2022/05/19 05:34:43;;;;;;;;;;;11.70;99.90;;;;;;5053966;28;19999;-72
2022/05/19 05:37:09;;;;;;;;;;;11.70;99.90;;;;;;5035754;28;19912;-73
2022/05/19 05:39:34;;;;;;;;;;;11.70;99.90;;;;;;5053810;28;20410;-73
2022/05/19 05:42:00;;;;;;;;;;;11.80;99.90;;;;;;5069299;28;19905;-73
2022/05/19 05:44:25;;;;;;;;;;;11.80;99.90;;;;;;5055087;28;19905;-73
2022/05/19 05:46:52;;;;;;;;;;;11.90;99.90;;;;;;5053458;28;19921;-73
2022/05/19 05:49:18;;;;;;;;;;;12.00;99.90;;;;;;5053503;28;19905;-73
2022/05/19 05:51:44;;;;;;;;;;;12.00;99.90;;;;;;5053795;28;20361;-73
2022/05/19 05:54:10;;;;;;;;;;;12.20;99.90;;;;;;5053879;28;19911;-73
2022/05/19 05:56:36;;;;;;;;;;;12.30;99.90;;;;;;5053464;28;19904;-73
2022/05/19 05:59:01;;;;;;;;;;;12.40;99.90;;;;;;5053336;28;19905;-72
2022/05/19 06:01:27;;;;;;;;;;;12.50;99.90;;;;;;5053927;28;19991;-73
2022/05/19 06:03:52;;;;;;;;;;;12.60;99.90;;;;;;5053553;28;19905;-73
2022/05/19 06:06:18;;;;;;;;;;;12.70;99.90;;;;;;5080823;23;19922;-78
2022/05/19 06:08:44;;;;;;;;;;;12.80;99.90;;;;;;5110205;28;19974;-78
2022/05/19 06:11:10;;;;;;;;;;;13.00;99.90;;;;;;5094803;28;19904;-78
2022/05/19 06:13:36;;;;;;;;;;;13.00;99.90;;;;;;5094916;28;19914;-78
2022/05/19 06:16:01;;;;;;;;;;;13.20;99.90;;;;;;5094412;28;19904;-78
2022/05/19 06:18:27;;;;;;;;;;;13.30;99.90;;;;;;5094957;28;19911;-78
2022/05/19 06:20:53;;;;;;;;;;;13.40;99.90;;;;;;5106244;23;19919;-73
2022/05/19 06:23:18;;;;;;;;;;;13.50;99.90;;;;;;5113843;28;19907;-73
2022/05/19 06:25:44;;;;;;;;;;;13.60;99.90;;;;;;5113697;28;19907;-73
2022/05/19 06:28:10;;;;;;;;;;;13.70;99.90;;;;;;5114821;28;19990;-73
2022/05/19 06:30:36;;;;;;;;;;;13.80;99.90;;;;;;5117586;28;19943;-73
2022/05/19 06:33:01;;;;;;;;;;;13.90;99.90;;;;;;5118084;28;19904;-73
2022/05/19 06:35:28;;;;;;;;;;;14.00;99.90;;;;;;5133432;27;19977;-73
2022/05/19 06:37:54;;;;;;;;;;;14.10;99.90;;;;;;5117724;28;19998;-72
2022/05/19 06:40:21;;;;;;;;;;;14.20;99.90;;;;;;5117636;28;20368;-72
2022/05/19 06:42:47;;;;;;;;;;;14.30;99.90;;;;;;5117380;28;19992;-72
2022/05/19 06:45:14;;;;;;;;;;;14.50;99.90;;;;;;5117511;28;19908;-72
2022/05/19 06:47:39;;;;;;;;;;;14.60;99.90;;;;;;5117289;28;19991;-72
2022/05/19 06:50:08;;;;;;;;;;;14.80;99.90;;;;;;5117236;28;19939;-72
2022/05/19 06:52:40;;;;;;;;;;;14.90;99.90;;;;;;5116875;28;19943;-72
2022/05/19 06:55:06;;;;;;;;;;;15.10;99.90;;;;;;5117440;28;19918;-72
2022/05/19 06:57:31;;;;;;;;;;;15.20;99.90;;;;;;5116961;28;19904;-72
2022/05/19 06:59:57;;;;;;;;;;;15.40;99.90;;;;;;5116956;28;19965;-72
2022/05/19 07:02:24;;;;;;;;;;;15.50;99.90;;;;;;5117009;28;19907;-72
2022/05/19 07:04:49;;;;;;;;;;;15.70;99.90;;;;;;5117014;28;19904;-72
2022/05/19 07:07:16;;;;;;;;;;;15.80;99.90;;;;;;5116596;28;19910;-72
2022/05/19 07:09:42;;;;;;;;;;;16.00;99.90;;;;;;5116884;28;19904;-72
2022/05/19 07:12:09;;;;;;;;;;;16.20;99.90;;;;;;5116763;28;20334;-72
2022/05/19 07:14:35;;;;;;;;;;;16.40;99.90;;;;;;5116712;28;20381;-72
2022/05/19 07:17:01;;;;;;;;;;;16.50;99.90;;;;;;5116624;28;19904;-71
2022/05/19 07:22:16;;;;;;;;;;;16.80;99.90;;;;;;5116251;28;20413;-72
2022/05/19 07:24:41;;;;;;;;;;;17.00;99.90;;;;;;5116504;28;20343;-72
2022/05/19 07:27:07;;;;;;;;;;;17.10;99.90;;;;;;5116425;28;19929;-72
2022/05/19 07:29:32;;;;;;;;;;;17.30;99.90;;;;;;5116422;28;19910;-72
2022/05/19 07:32:04;;;;;;;;;;;17.40;99.90;;;;;;5116369;28;19910;-72
2022/05/19 07:34:30;;;;;;;;;;;17.50;99.90;;;;;;5116905;28;20358;-72
2022/05/19 07:36:56;;;;;;;;;;;17.70;99.90;;;;;;5115996;28;19904;-73
2022/05/19 07:39:21;;;;;;;;;;;17.90;99.90;;;;;;5115543;28;20273;-73
2022/05/19 07:41:47;;;;;;;;;;;18.00;99.90;;;;;;5115962;28;19986;-73
2022/05/19 07:44:13;;;;;;;;;;;18.20;99.90;;;;;;5116718;28;19974;-73
2022/05/19 07:46:39;;;;;;;;;;;18.40;99.90;;;;;;5116027;28;19907;-73
2022/05/19 07:49:04;;;;;;;;;;;18.50;99.90;;;;;;5116013;28;19904;-73
2022/05/19 07:51:36;;;;;;;;;;;18.60;99.90;;;;;;5115698;28;19953;-73
2022/05/19 07:54:03;;;;;;;;;;;18.70;98.80;;;;;;5116211;28;19904;-73
2022/05/19 07:56:28;;;;;;;;;;;18.80;97.70;;;;;;5116047;28;19907;-73
2022/05/19 07:58:54;;;;;;;;;;;19.00;97.30;;;;;;5115773;28;20343;-73
2022/05/19 08:01:19;;;;;;;;;;;19.20;97.30;;;;;;5115666;28;20400;-73
2022/05/19 08:03:45;;;;;;;;;;;19.40;97.80;;;;;;5115685;28;20364;-73
2022/05/19 08:06:11;;;;;;;;;;;19.50;96.80;;;;;;5115663;28;19947;-73
2022/05/19 08:08:39;;;;;;;;;;;19.70;96.50;;;;;;5115622;28;19939;-74
2022/05/19 08:11:05;;;;;;;;;;;19.90;95.90;;;;;;5115643;28;19926;-73
2022/05/19 08:16:15;;;;;;;;;;;20.10;94.30;;;;;;5115484;28;20407;-73
2022/05/19 08:18:41;;;;;;;;;;;20.30;93.60;;;;;;5115751;28;19904;-73
2022/05/19 08:21:08;;;;;;;;;;;20.40;93.20;;;;;;5114967;28;19990;-73
2022/05/19 08:23:35;;;;;;;;;;;20.60;92.70;;;;;;5115915;28;20250;-73
2022/05/19 08:26:01;;;;;;;;;;;20.80;92.50;;;;;;5115316;28;19903;-73
2022/05/19 08:28:29;;;;;;;;;;;20.90;93.50;;;;;;5115365;28;19904;-73
2022/05/19 08:30:56;;;;;;;;;;;21.10;92.70;;;;;;5115230;28;19904;-73
2022/05/19 08:33:21;;;;;;;;;;;21.20;92.00;;;;;;5115218;28;19904;-73
2022/05/19 08:35:49;;;;;;;;;;;21.40;91.50;;;;;;5115085;28;19904;-73
2022/05/19 08:38:15;;;;;;;;;;;21.50;90.50;;;;;;5115400;28;19943;-73
2022/05/19 08:40:47;;;;;;;;;;;21.60;89.10;;;;;;5114985;28;19961;-73
2022/05/19 08:43:14;;;;;;;;;;;21.80;88.80;;;;;;5115305;28;19907;-73
2022/05/19 08:45:41;;;;;;;;;;;21.90;86.90;;;;;;5114865;28;19908;-73
2022/05/19 08:48:10;;;;;;;;;;;22.00;83.10;;;;;;5115206;28;19910;-73
2022/05/19 08:50:43;;;;;;;;;;;22.20;82.30;;;;;;5114702;28;19904;-73
2022/05/19 08:53:11;;;;;;;;;;;22.30;80.60;;;;;;5114559;28;19949;-73
2022/05/19 08:55:39;;;;;;;;;;;22.50;80.40;;;;;;5114694;28;19994;-73
2022/05/19 08:58:14;;;;;;;;;;;22.60;80.40;;;;;;5114728;28;19908;-73
2022/05/19 09:00:49;;;;;;;;;;;22.80;80.00;;;;;;5096377;28;20036;-73
2022/05/19 09:03:17;;;;;;;;;;;22.90;79.70;;;;;;5114682;28;20370;-73
2022/05/19 09:06:01;;;;;;;;;;;23.00;78.20;;;;;;5114524;28;19903;-73
2022/05/19 09:08:36;;;;;;;;;;;23.10;76.70;;;;;;5096310;28;19911;-73
2022/05/19 09:11:21;;;;;;;;;;;23.30;77.70;;;;;;5114486;28;20252;-73
2022/05/19 09:13:55;;;;;;;;;;;23.40;78.10;;;;;;5114500;28;19903;-73
2022/05/19 09:16:23;;;;;;;;;;;23.60;78.30;;;;;;5114397;28;20403;-73
2022/05/19 09:19:02;;;;;;;;;;;23.70;77.60;;;;;;5096167;28;19908;-73
2022/05/19 09:21:27;;;;;;;;;;;23.80;76.40;;;;;;5114070;28;19915;-73
2022/05/19 09:23:53;;;;;;;;;;;24.00;79.90;;;;;;5114657;28;19911;-73
2022/05/19 09:26:27;;;;;;;;;;;24.00;78.80;;;;;;5114562;28;19903;-72
2022/05/19 09:28:57;;;;;;;;;;;24.10;73.60;;;;;;5114622;28;20283;-73
2022/05/19 09:31:33;;;;;;;;;;;24.20;71.80;;;;;;5096091;28;19903;-73
2022/05/19 09:33:58;;;;;;;;;;;24.30;73.50;;;;;;5114580;28;19923;-72
2022/05/19 09:36:24;;;;;;;;;;;24.40;71.70;;;;;;5113951;28;19903;-72
2022/05/19 09:38:56;;;;;;;;;;;24.60;72.80;;;;;;5114545;28;19934;-73
2022/05/19 09:41:32;;;;;;;;;;;24.70;71.50;;;;;;5114487;28;20256;-72
2022/05/19 09:43:58;;;;;;;;;;;24.90;71.20;;;;;;5114516;28;20355;-72
2022/05/19 09:46:31;;;;;;;;;;;25.10;71.50;;;;;;5114093;28;20371;-72
2022/05/19 09:49:01;;;;;;;;;;;25.10;69.50;;;;;;5114492;28;19943;-72
2022/05/19 09:51:31;;;;;;;;;;;25.30;71.30;;;;;;5113846;28;19904;-72
2022/05/19 09:53:59;;;;;;;;;;;25.40;69.50;;;;;;5114366;28;19943;-73
2022/05/19 09:56:25;;;;;;;;;;;25.60;68.30;;;;;;5114002;28;19903;-72
2022/05/19 09:58:52;;;;;;;;;;;25.60;65.30;;;;;;5114336;28;19908;-72
2022/05/19 10:01:34;;;;;;;;;;;25.70;64.40;;;;;;5114273;28;19947;-72
2022/05/19 10:04:01;;;;;;;;;;;25.80;62.10;;;;;;5116496;28;19904;-73
2022/05/19 10:06:45;;;;;;;;;;;25.90;61.80;;;;;;5117818;28;19904;-72
2022/05/19 10:09:14;;;;;;;;;;;26.00;62.90;;;;;;5118584;28;20294;-72
2022/05/19 10:11:52;;;;;;;;;;;26.10;62.40;;;;;;5118006;28;19904;-72
2022/05/19 10:14:19;;;;;;;;;;;26.20;62.20;;;;;;5118217;28;19908;-72
2022/05/19 10:16:58;;;;;;;;;;;26.40;62.40;;;;;;5117792;28;19927;-72
2022/05/19 10:19:31;;;;;;;;;;;26.50;63.80;;;;;;5117668;28;20002;-72
2022/05/19 10:22:00;;;;;;;;;;;26.70;62.50;;;;;;5117420;28;19911;-72
2022/05/19 10:24:33;;;;;;;;;;;26.80;60.80;;;;;;5099506;28;19904;-72
2022/05/19 10:32:48;;;;;;;;;;;27.20;56.60;;;;;;5117543;28;20366;-72
2022/05/19 10:35:19;;;;;;;;;;;27.20;56.20;;;;;;5117760;28;19903;-72
2022/05/19 10:37:50;;;;;;;;;;;27.30;57.40;;;;;;5117325;28;19906;-71
2022/05/19 10:40:26;;;;;;;;;;;27.40;57.50;;;;;;5117546;28;19986;-72
2022/05/19 10:43:03;;;;;;;;;;;27.60;58.10;;;;;;5099286;28;19908;-72
2022/05/19 10:45:42;;;;;;;;;;;27.70;56.00;;;;;;5116049;28;19907;-72
2022/05/19 10:48:28;;;;;;;;;;;27.90;56.50;;;;;;5117149;28;19904;-71
2022/05/19 10:50:59;;;;;;;;;;;28.00;54.20;;;;;;5092269;28;20360;-72
2022/05/19 10:53:43;;;;;;;;;;;27.90;55.40;;;;;;5094181;28;19957;-72
2022/05/19 10:56:18;;;;;;;;;;;28.00;53.30;;;;;;5095460;28;19983;-72
2022/05/19 10:58:47;;;;;;;;;;;28.10;53.40;;;;;;5077889;28;19908;-71
2022/05/19 11:01:31;;;;;;;;;;;28.20;53.00;;;;;;5094177;28;19915;-71
2022/05/19 11:04:32;;;;;;;;;;;28.20;52.90;;;;;;5094957;28;19904;-72
2022/05/19 11:06:57;;;;;;;;;;;28.20;51.90;;;;;;5034276;28;20392;-70
2022/05/19 11:09:29;;;;;;;;;;;28.20;52.90;;;;;;5081020;28;19904;-72
2022/05/19 11:12:01;;;;;;;;;;;28.20;52.30;;;;;;5093711;28;20484;-72
2022/05/19 11:14:50;;;;;;;;;;;28.30;51.80;;;;;;5093891;28;19970;-71
2022/05/19 11:17:21;;;;;;;;;;;28.30;52.30;;;;;;5067086;28;24063;-71
2022/05/19 11:19:50;;;;;;;;;;;28.40;52.50;;;;;;5095979;28;20366;-71
2022/05/19 11:22:25;;;;;;;;;;;28.50;53.70;;;;;;5076835;28;20274;-72
2022/05/19 11:28:00;;;;;;;;;;;29.00;52.70;;;;;;5095111;28;24063;-71
2022/05/19 11:30:31;;;;;;;;;;;29.10;53.00;;;;;;5096364;28;20033;-71
2022/05/19 11:32:58;;;;;;;;;;;28.90;51.70;;;;;;5095822;28;19911;-71
2022/05/19 11:35:33;;;;;;;;;;;28.90;53.40;;;;;;5095465;28;20453;-71
2022/05/19 11:38:01;;;;;;;;;;;28.80;51.10;;;;;;5095135;28;20062;-71
2022/05/19 11:40:29;;;;;;;;;;;28.70;53.20;;;;;;5095749;28;19990;-71
2022/05/19 11:43:13;;;;;;;;;;;28.80;53.50;;;;;;5094994;28;20054;-71
2022/05/19 11:45:53;;;;;;;;;;;28.90;52.50;;;;;;5094449;28;19913;-71
2022/05/19 11:57:09;;;;;;;4.30;2.30;;;29.40;51.70;;;;;;5095162;28;20054;-71
2022/05/19 11:59:35;;;;;;;;;;;29.40;53.60;;;;;;5095669;28;20031;-71
2022/05/19 12:02:02;;;;;;;;;;;29.40;51.40;;;;;;5095293;28;20046;-71
2022/05/19 12:04:30;;;;;;;;;;;29.50;49.40;;;;;;5094993;28;20485;-71
2022/05/19 12:07:00;;;;;;;;;;;29.60;52.40;;;;;;5094731;28;20091;-70
2022/05/19 12:09:28;;;;;;;;;;;29.80;51.40;;;;;;5127057;27;20131;-70
2022/05/19 12:11:58;;;;;;;;;;;29.80;50.40;;;;;;5135835;27;20031;-70
2022/05/19 12:14:24;;;;;;;2.67;2.10;;;29.40;50.70;;;;;;5135553;27;20035;-70
2022/05/19 12:16:57;;;;;;;4.00;2.40;;;29.30;51.20;;;;;;5135628;27;20019;-70
2022/05/19 12:19:41;;;;;;;5.25;2.20;;;29.10;51.70;;;;;;5135250;27;20047;-70
2022/05/19 12:22:31;;;;;;;6.32;2.17;;;29.00;53.00;;;;;;5105832;27;20028;-71
2022/05/19 12:25:08;;;;;;;4.78;2.15;;;29.20;54.00;;;;;;5094639;28;20016;-71
2022/05/19 12:27:37;;;;;;;3.30;1.90;;;29.40;53.00;;;;;;5098673;28;19947;-71
2022/05/19 12:33:11;;;;;;;4.30;2.17;;;29.90;51.50;;;;;;5095358;28;20141;-70
2022/05/19 12:35:38;;;;;;;3.67;1.90;;;29.80;51.10;;;;;;5094588;28;20016;-70
2022/05/19 12:38:25;;;;;;;4.53;2.55;;;29.90;52.10;;;;;;5090339;27;20035;-70
2022/05/19 12:40:55;;;;;;;3.83;1.95;;;29.80;50.20;;;;;;5135699;27;20027;-70
2022/05/19 12:43:21;;;;;;;3.65;2.08;;;29.60;50.70;;;;;;5135167;27;20015;-70
2022/05/19 12:46:01;;;;;;;3.05;2.17;;;29.40;51.50;;;;;;5135142;27;20012;-70
2022/05/19 12:48:33;;;;;;;6.60;2.50;;;29.20;51.90;;;;;;5124933;27;20037;-71
2022/05/19 12:51:17;;;;;;;4.80;2.00;;;29.00;50.30;;;;;;5115276;28;20031;-70
2022/05/19 12:54:05;;;;;;;3.47;2.10;;;28.90;50.60;;;;;;5114438;28;20028;-70
2022/05/19 12:56:40;;;;;;;4.78;2.25;;;28.80;51.60;;;;;;5121215;27;20096;-71
2022/05/19 12:59:07;;;;;;;3.45;1.83;;;28.70;52.30;;;;;;5135051;27;20024;-71
2022/05/19 13:01:48;;;;;;;3.13;2.00;;;28.70;52.10;;;;;;5116537;27;20030;-70
2022/05/19 13:04:36;;;;;;;3.88;2.20;;;28.70;52.60;;;;;;5135283;27;20102;-70
2022/05/19 13:07:21;;;;;;;10.05;2.63;;;28.60;53.30;;;;;;5134315;27;20062;-70
2022/05/19 13:10:08;;;;;;;4.65;2.08;;;28.60;56.60;;;;;;5116464;27;20046;-70
2022/05/19 13:12:56;;;;;;;4.80;2.45;;;28.50;53.70;;;;;;5135138;27;20076;-70
2022/05/19 13:15:28;;;;;;;10.20;4.13;;;28.50;55.10;;;;;;5116178;27;20038;-71
2022/05/19 13:17:56;;;;;;;11.30;4.65;;;28.40;63.50;;;;;;5135009;27;20490;-70
2022/05/19 13:20:29;;;;;;;7.43;3.80;;;28.20;65.90;;;;;;5115948;27;20027;-70
2022/05/19 13:23:00;;;;;;;10.80;2.95;;;28.00;73.60;;;;;;5116190;27;20479;-69
2022/05/19 13:25:28;;;;;;;10.55;3.95;;;27.50;78.50;;;;;;5134756;27;20356;-69
2022/05/19 13:30:55;;;;;;;13.52;6.93;;;26.90;75.60;;;;;;5112428;28;20027;-70
2022/05/19 13:33:29;;;;;;;14.40;8.05;;;26.60;73.90;;;;;;5112817;28;20132;-70
2022/05/19 13:36:00;;;;;;;7.75;4.72;;;26.70;85.20;;;;;;5112604;28;20345;-70
2022/05/19 13:38:26;;;;;;;7.35;3.78;;;26.40;81.80;;;;;;5111727;28;20026;-70
2022/05/19 13:40:55;;;;;;;6.82;3.80;;;26.30;89.60;;;;;;5112425;28;20027;-69
2022/05/19 13:43:35;;;;;;;3.88;3.30;;;26.30;90.70;;;;;;5112564;28;20016;-69
2022/05/19 13:46:08;;;;;;;5.03;2.58;;;26.30;93.10;;;;;;5112451;28;20023;-69
2022/05/19 13:48:50;;;;;;;4.85;3.10;;;26.40;93.70;;;;;;5112260;28;20076;-69
2022/05/19 13:51:21;;;;;;;4.13;2.70;;;26.60;94.00;;;;;;5112562;28;20109;-69
2022/05/19 13:53:59;;;;;;;3.78;2.53;;;26.70;93.50;;;;;;5112584;28;20047;-69
2022/05/19 13:56:40;;;;;;;4.53;3.08;;;26.80;93.50;;;;;;5112347;28;20024;-68
2022/05/19 13:59:06;;;;;;;;;;;26.80;93.90;;;;;;5095462;28;20411;-68
2022/05/19 14:01:40;;;;;;;5.75;3.08;;;26.90;94.40;;;;;;5114211;28;19908;-68
2022/05/19 14:04:09;;;;;;;14.65;3.83;;;27.10;94.70;;;;;;5113713;28;20016;-68
2022/05/19 14:06:37;;;;;;;9.63;3.60;;;27.40;93.20;;;;;;5095558;28;20019;-69
2022/05/19 14:09:06;;;;;;;8.65;3.60;;;27.50;93.10;;;;;;5113860;28;20019;-68
2022/05/19 14:11:32;;;;;;;6.00;3.22;;;27.50;90.90;;;;;;5113556;28;20019;-69
2022/05/19 14:14:00;;;;;;;4.35;2.85;;;27.30;86.50;;;;;;5113892;28;20345;-69
2022/05/19 14:16:30;;;;;;;4.80;2.53;;;27.20;77.20;;;;;;5119575;28;20037;-69
2022/05/19 14:19:01;;;;;;;6.07;2.93;;;27.10;71.80;;;;;;5134064;28;20046;-68
2022/05/19 14:21:31;;;;;;;17.58;5.25;;;27.00;68.60;;;;;;5133847;28;20080;-69
2022/05/19 14:24:12;;;;;;;7.35;2.88;;;27.00;85.20;;;;;;5134314;28;20054;-69
2022/05/19 14:26:48;;;;;;;3.97;3.03;;;26.90;88.80;;;;;;5092119;28;20441;-69
2022/05/19 14:29:25;;;;;;;6.35;3.33;;;26.80;88.20;;;;;;5097423;28;20074;-70
2022/05/19 14:32:13;;;;;;;8.77;3.85;;;26.80;91.90;;;;;;5092975;28;20479;-70
2022/05/19 14:34:41;;;;;;;5.63;3.40;;;26.90;92.80;;;;;;5093198;28;20032;-69